DW1830 Weather Reports


Display with metric or nautical units.
time (UTC)temp
F
wind
direction
speed
MPH
gust
MPH
rain 1hr
in
rain 24hr
in
rain mn
in
humidity
%
barometer
mb
20190426103148 52 258 2.0 4.0 0.00 0.00 0.00 59 1018.6
20190426100147 53 279 0.0 5.0 0.00 0.00 0.00 57 1018.3
20190426093147 54 238 3.0 11.0 0.00 0.00 0.00 55 1018.1
20190426090145 54 336 0.0 6.0 0.00 0.00 0.00 57 1017.6
20190426083145 54 263 2.0 4.0 0.00 0.00 0.00 58 1017.5
20190426080144 55 280 0.0 7.0 0.00 0.00 0.00 59 1017.5
20190426073145 56 307 1.0 4.0 0.00 0.00 0.00 58 1016.9
20190426070143 57 275 0.0 7.0 0.00 0.00 0.00 55 1016.7
20190426063142 58 318 0.0 7.0 0.00 0.00 0.00 53 1016.5
20190426060142 59 298 3.0 5.0 0.00 0.00 0.00 48 1016.2
20190426053142 59 313 0.0 4.0 0.00 0.00 0.00 45 1016.1
20190426050141 60 266 3.0 4.0 0.00 0.00 0.00 43 1016.0
20190426043141 61 250 0.0 5.0 0.00 0.00 0.00 41 1015.8
20190426040140 62 236 0.0 6.0 0.00 0.00 0.00 40 1015.4
20190426033140 64 288 0.0 4.0 0.00 0.00 0.00 40 1015.0
20190426030139 65 270 0.0 4.0 0.00 0.00 0.00 39 1014.7
20190426023138 66 261 2.0 7.0 0.00 0.00 0.00 35 1014.6
20190426020138 68 259 0.0 7.0 0.00 0.00 0.00 34 1014.6
20190426013137 69 38 2.0 10.0 0.00 0.00 0.00 33 1014.4
20190426010136 71 262 4.0 6.0 0.00 0.00 0.00 29 1014.5
20190426003136 72 280 0.0 6.0 0.00 0.00 0.00 25 1014.5
20190426000135 72 350 1.0 9.0 0.00 0.00 0.00 26 1014.6
20190425233135 72 284 2.0 7.0 0.00 0.00 0.00 27 1014.6
20190425230134 72 313 1.0 12.0 0.00 0.00 0.00 27 1014.9
20190425223134 72 254 3.0 10.0 0.00 0.00 0.00 29 1015.0
20190425220133 72 268 0.0 10.0 0.00 0.00 0.00 30 1015.2
20190425213133 72 215 1.0 10.0 0.00 0.00 0.00 32 1015.5
20190425210132 72 5 2.0 10.0 0.00 0.00 0.00 30 1015.5
20190425203131 70 267 3.0 10.0 0.00 0.00 0.00 34 1015.9
20190425200131 68 306 4.0 8.0 0.00 0.00 0.00 41 1016.0
20190425193130 65 306 4.0 10.0 0.00 0.00 0.00 44 1016.5
20190425190200 64 279 1.0 9.0 0.00 0.00 0.00 47 1016.9
20190425183129 61 264 1.0 8.0 0.00 0.00 0.00 51 1017.2
20190425180158 59 315 0.0 6.0 0.00 0.00 0.00 53 1017.5
20190425173158 56 292 0.0 9.0 0.00 0.00 0.00 56 1017.9
20190425170158 54 273 0.0 6.0 0.00 0.00 0.00 60 1018.1
20190425163157 51 331 2.0 7.0 0.00 0.00 0.00 66 1018.5
20190425160156 47 301 0.0 4.0 0.00 0.00 0.00 74 1018.6
20190425153155 44 312 0.0 4.0 0.00 0.00 0.00 83 1018.8
20190425150155 42 22 0.0 0.0 0.00 0.00 0.00 93 1019.1
20190425143155 40 22 0.0 0.0 0.00 0.00 0.00 93 1019.1
20190425140154 38 300 0.0 0.0 0.00 0.00 0.00 92 1019.1
20190425133153 38 300 0.0 0.0 0.00 0.00 0.00 90 1019.3
20190425130153 37 300 0.0 0.0 0.00 0.00 0.00 89 1019.3
20190425123152 38 300 0.0 0.0 0.00 0.00 0.00 89 1019.6
20190425120152 38 300 0.0 0.0 0.00 0.00 0.00 88 1019.7
20190425113152 39 300 0.0 0.0 0.00 0.00 0.00 88 1020.2
20190425110151 39 300 0.0 0.0 0.00 0.00 0.00 87 1020.2